x

Edisto - 41 Nm Southeast Of Charleston, Sc (41004) Weather Station

12:10am - Wed 22nd Nov 2017 All times are EST. -5 hours from GMT.

  • Wind
    22mph, 31mph gusts
  • Sea Temp 74°f
  • Air Temp 69°f
  • Sea Pressure 1014.2mb
  • Edisto - 41 Nm Southeast Of Charleston, Sc
  • Edisto - 41 Nm Southeast Of Charleston, Sc

More Historic Weather Station data

Upgrade to MSW Pro to gain access to the past 30 days of data for over 8000 Wavebouys and Weather Stations around the globe.

Join

Comparision Forecast

View Surf forecast
   
Wed 11/22 12:10am  -   -   -  22 31 mph 1014.2mb 74f 69f
12:00am  -   -   -  18 29 mph 1014.4mb 74f 70f
Tue 11/21 11:30pm  -   -   -  18 25 mph 1014.6mb 74f 70f
11:20pm  -   -   -  13 18 mph 1014.4mb 74f 70f
11:10pm  -   -   -  13 18 mph 1014.4mb 74f 70f
11:00pm  -   -   -  11 16 mph 1014.4mb 74f 69f
10:50pm 6.5ft 7s 6s 11 16 mph 1014.4mb 74f 69f
10:40pm 6.5ft  -  6s 11 16 mph 1014.4mb 74f 69f
10:30pm  -   -   -  9 13 mph 1014.4mb 74f 69f
10:20pm  -   -   -  7 11 mph 1014.6mb 74f 69f
10:10pm  -   -   -  7 11 mph 1014.6mb 74f 68f
10:00pm  -   -   -  7 11 mph 1014.7mb 74f 68f
9:50pm 7ft 7s 6s 9 13 mph 1014.8mb 74f 68f
9:40pm 7ft  -  6s 9 13 mph 1014.7mb 74f 67f
9:30pm  -   -   -  9 16 mph 1014.8mb 74f 67f
9:20pm  -   -   -  11 16 mph 1014.8mb 74f 66f
9:10pm  -   -   -  13 20 mph 1015.2mb 74f 67f
9:00pm  -   -   -  16 22 mph 1015.2mb 74f 67f
8:50pm 6ft 7s 5s 18 22 mph 1015.4mb 74f 67f
8:40pm 6ft  -  5s 25 34 mph 1015.7mb 74f 67f
8:30pm  -   -   -  18 29 mph 1015.7mb 74f 68f
8:20pm  -   -   -  18 36 mph 1015.5mb 74f 69f
8:10pm  -   -   -  16 27 mph 1015.1mb - 72f
8:00pm  -   -   -  16 22 mph 1015.6mb 74f 70f
7:50pm 6ft 6s 5s 20 34 mph 1015.3mb 74f 71f
7:40pm 6ft  -  5s 16 20 mph 1014.9mb - 73f
7:30pm  -   -   -  13 16 mph 1015mb 74f 73f
7:20pm  -   -   -  13 16 mph 1015.3mb 74f 73f
7:10pm  -   -   -  13 18 mph 1015.6mb 74f 73f
7:00pm  -   -   -  16 20 mph 1015.6mb 74f 73f
6:50pm 4.5ft 7s 5s 18 20 mph 1015.4mb - 73f
6:40pm 4.5ft  -  5s 13 20 mph 1015.7mb 74f 71f
6:30pm  -   -   -  9 11 mph 1015.9mb 74f 71f
6:20pm  -   -   -  9 13 mph 1016.1mb 74f 69f
6:10pm  -   -   -  11 13 mph 1016.2mb 74f 69f
6:00pm  -   -   -  11 16 mph 1016.2mb 74f 70f
5:50pm 4.5ft 6s 5s 13 18 mph 1016.2mb 74f 70f
5:40pm 4.5ft  -  5s 18 22 mph 1016.3mb 74f 71f
5:30pm  -   -   -  13 20 mph 1016.3mb 74f 72f
5:20pm  -   -   -  13 16 mph 1016.2mb 74f 72f
5:10pm  -   -   -  13 18 mph 1016.3mb 74f 72f
5:00pm  -   -   -  16 22 mph 1016.3mb 74f 72f
4:50pm 4.5ft 6s 5s 18 22 mph 1016.4mb 74f 73f
4:40pm 4.5ft  -  5s 18 25 mph 1016.5mb 74f 73f
4:30pm  -   -   -  13 25 mph 1016.5mb 74f 73f
4:20pm  -   -   -  13 18 mph 1016.5mb 74f 73f
4:10pm  -   -   -  13 18 mph 1016.5mb 74f 73f
4:00pm  -   -   -  13 18 mph 1016.7mb 74f 73f
3:50pm 4.5ft 6s 5s 13 18 mph 1016.8mb 74f 73f
3:40pm 4.5ft  -  5s 16 18 mph 1017mb 74f 73f
3:30pm  -   -   -  13 18 mph 1017mb 74f 73f
3:20pm  -   -   -  16 20 mph 1017.2mb 74f 73f
3:10pm  -   -   -  16 18 mph 1017.2mb 74f 73f
3:00pm  -   -   -  16 20 mph 1017.2mb 74f 73f
2:50pm 4.5ft 6s 5s 16 20 mph 1017.1mb 74f 73f
2:40pm 4.5ft  -  5s 16 20 mph 1017.2mb 74f 73f
2:30pm  -   -   -  13 18 mph 1017.1mb 74f 73f
2:20pm  -   -   -  16 18 mph 1017mb 74f 73f
2:10pm  -   -   -  16 22 mph 1017mb 74f 73f
2:00pm  -   -   -  16 20 mph 1017.3mb 74f 73f
1:50pm 4.5ft 6s 5s 16 20 mph 1017.4mb - 73f
1:40pm 4.5ft  -  5s 16 22 mph 1017.5mb 74f 73f
1:30pm  -   -   -  16 20 mph 1017.6mb 74f 73f
1:20pm  -   -   -  13 16 mph 1017.8mb 74f 73f
1:10pm  -   -   -  16 20 mph 1017.8mb 74f 73f
1:00pm  -   -   -  16 18 mph 1017.8mb 74f 73f
12:50pm 4.5ft 6s 5s 16 18 mph 1017.9mb 74f 73f
12:40pm 4.5ft  -  5s 16 20 mph 1018.2mb 74f 73f
12:30pm  -   -   -  16 20 mph 1018.3mb 74f 73f
12:20pm  -   -   -  18 22 mph 1018.4mb 74f 73f
12:10pm  -   -   -  18 22 mph 1018.6mb 74f 73f
12:00pm  -   -   -  18 22 mph 1019.3mb 74f 73f
11:50am 4.5ft 6s 5s 18 22 mph 1019mb 74f 73f
11:40am  -   -   -  16 22 mph 1019.3mb 74f 72f
11:30am  -   -   -  16 20 mph 1019.8mb 74f 72f
11:20am  -   -   -  16 20 mph 1020.1mb - 73f
11:10am  -   -   -  16 20 mph 1020.3mb 74f 73f
11:00am  -   -   -  16 20 mph 1020.4mb 74f 73f
10:50am 4ft 5s 5s 16 20 mph 1020.6mb 74f 73f
10:40am 4ft  -  5s 16 20 mph 1020.7mb 74f 72f
10:30am  -   -   -  18 22 mph 1020.8mb 74f 73f
10:20am  -   -   -  18 22 mph 1020.8mb 74f 73f
10:10am  -   -   -  16 22 mph 1020.9mb 74f 73f
10:00am  -   -   -  16 20 mph 1021mb 74f 72f
9:50am 3.5ft 6s 5s 16 20 mph 1021.2mb 74f 73f
9:40am  -   -   -  16 20 mph 1021.1mb 74f 73f
9:30am  -   -   -  16 20 mph 1021.1mb 74f 72f
9:20am  -   -   -  18 22 mph 1021.1mb 74f 73f
9:10am  -   -   -  16 20 mph 1021.1mb 74f 72f
9:00am  -   -   -  13 18 mph 1021.1mb 74f 72f
8:50am 3ft 6s 4s 13 18 mph 1021.1mb 74f 72f
8:40am 3ft  -  4s 13 16 mph 1021.2mb 74f 72f
8:30am  -   -   -  16 18 mph 1021.2mb 74f 72f
8:20am  -   -   -  13 20 mph 1021.1mb 74f 72f
8:10am  -   -   -  13 18 mph 1021.2mb - 72f
8:00am  -   -   -  13 16 mph 1021.2mb - 71f
7:50am 3.5ft 5s 4s 16 18 mph 1021.2mb 73f 71f
7:40am  -   -   -  16 22 mph 1021.1mb 74f 71f
7:30am  -   -   -  16 20 mph 1021.1mb 74f 71f
7:20am  -   -   -  16 18 mph 1021mb 74f 71f
7:10am  -   -   -  16 18 mph 1021.1mb 73f 71f
7:00am  -   -   -  13 16 mph 1021.1mb 73f 71f
6:50am 3ft 8s 4s 13 18 mph 1021mb 73f 71f
6:40am 3ft  -  4s 13 18 mph 1021.1mb 73f 71f
6:30am  -   -   -  13 18 mph 1021.1mb 73f 71f
6:20am  -   -   -  16 18 mph 1021mb 73f 71f
6:10am  -   -   -  16 20 mph 1021.1mb 73f 71f
6:00am  -   -   -  13 18 mph 1021.2mb 73f 70f
5:50am 3.5ft 4s 4s 11 16 mph 1021.1mb 73f 70f
5:40am 3.5ft  -  4s 13 18 mph 1021.1mb 73f 70f
5:30am  -   -   -  13 18 mph 1021.1mb 73f 70f
5:20am  -   -   -  13 18 mph 1021mb 73f 70f
5:10am  -   -   -  13 18 mph 1021.1mb 73f 70f
5:00am  -   -   -  16 20 mph 1021.1mb 73f 70f
4:50am 3ft 4s 4s 13 18 mph 1021.1mb 73f 70f
4:40am  -   -   -  11 16 mph 1021mb 73f 70f
4:30am  -   -   -  13 18 mph 1021mb 73f 70f
4:20am  -   -   -  18 27 mph 1021.1mb 73f 70f
4:10am  -   -   -  13 18 mph 1020.9mb 73f 69f
4:00am  -   -   -  13 18 mph 1021.1mb 73f 69f
3:50am 3.5ft 4s 4s 13 18 mph 1021mb 73f 69f
3:40am 3.5ft  -  4s 16 22 mph 1021.1mb 73f 69f
3:30am  -   -   -  13 20 mph 1021.2mb 73f 69f
3:20am  -   -   -  16 22 mph 1021.1mb 73f 69f
3:10am  -   -   -  16 20 mph 1021.1mb 73f 69f
3:00am  -   -   -  13 18 mph 1021.2mb 73f 69f
2:50am 3.5ft 4s 4s 13 18 mph 1021.4mb 73f 69f
2:40am  -   -   -  16 22 mph 1021.4mb 73f 69f
2:30am  -   -   -  18 20 mph 1021.3mb 73f 69f
2:20am  -   -   -  16 25 mph 1021.3mb 73f 69f
2:10am  -   -   -  16 20 mph 1021.3mb 73f 69f
2:00am  -   -   -  13 22 mph 1021.4mb 73f 69f
1:50am 3ft 7s 4s 13 18 mph 1021.5mb 73f 69f
1:40am  -   -   -  13 18 mph 1021.4mb 73f 69f
1:30am  -   -   -  13 18 mph 1021.7mb 73f 69f
1:20am  -   -   -  13 18 mph 1021.7mb 73f 69f
1:10am  -   -   -  13 18 mph 1022mb 73f 69f
1:00am  -   -   -  13 18 mph 1022mb - 69f
12:50am 3ft 7s 5s 13 18 mph 1022.1mb 73f 69f
12:40am  -   -   -  13 20 mph 1022.2mb 73f 68f
12:30am  -   -   -  11 16 mph 1022.3mb 73f 68f
12:20am  -   -   -  13 18 mph 1022.4mb 73f 68f
12:10am  -   -   -  11 16 mph 1022.4mb 73f 67f
12:00am  -   -   -  11 16 mph 1022.4mb - 67f
Mon 11/20 11:50pm 2.5ft 8s 5s 11 13 mph 1022.5mb 73f 67f
11:40pm  -   -   -  11 16 mph 1022.7mb 73f 67f
11:30pm  -   -   -  11 16 mph 1022.8mb 73f 66f
11:20pm  -   -   -  11 13 mph 1023mb 73f 66f
11:10pm  -   -   -  11 16 mph 1023mb 73f 66f
11:00pm  -   -   -  11 16 mph 1023.1mb 73f 66f
10:50pm 3ft 8s 5s 9 13 mph 1023.2mb 73f 66f
10:40pm  -   -   -  11 16 mph 1023.3mb 73f 65f
10:30pm  -   -   -  9 13 mph 1023.3mb 73f 65f
10:20pm  -   -   -  11 16 mph 1023.3mb 73f 65f
10:10pm  -   -   -  13 18 mph 1023.1mb 73f 65f
10:00pm  -   -   -  11 16 mph 1023mb 73f 65f
9:50pm 3ft 6s 5s 11 16 mph 1023.2mb 73f 65f
9:40pm  -   -   -  11 16 mph 1023.1mb 73f 65f
9:30pm  -   -   -  13 20 mph 1023.1mb 73f 65f
9:20pm  -   -   -  13 18 mph 1023.1mb 73f 64f
9:10pm  -   -   -  13 18 mph 1023.1mb 73f 64f
9:00pm  -   -   -  11 16 mph 1023.3mb 73f 64f
8:50pm 3ft 6s 5s 9 18 mph 1023.4mb 73f 64f
8:40pm 3ft  -  5s 13 16 mph 1023.3mb 73f 64f
8:30pm  -   -   -  11 16 mph 1023.2mb 73f 63f
8:20pm  -   -   -  11 16 mph 1023.1mb 73f 63f
8:10pm  -   -   -  13 18 mph 1023.1mb 73f 63f
8:00pm  -   -   -  11 16 mph 1023.2mb 73f 63f
7:50pm 3ft 6s 5s 11 18 mph 1023.3mb 73f 62f
7:40pm  -   -   -  11 18 mph 1023.3mb 73f 62f
7:30pm  -   -   -  13 18 mph 1023.3mb 73f 62f
7:20pm  -   -   -  13 18 mph 1023.1mb 73f 62f
7:10pm  -   -   -  13 18 mph 1023.3mb 73f 62f
7:00pm  -   -   -  13 18 mph 1023.2mb 73f 62f
6:50pm 3.5ft 6s 5s 11 18 mph 1023.4mb 73f 62f
6:40pm 3.5ft  -  5s 11 16 mph 1023.4mb 73f 61f
6:30pm  -   -   -  11 16 mph 1023.4mb 73f 61f
6:20pm  -   -   -  11 16 mph 1023.4mb 73f 61f
6:10pm  -   -   -  13 18 mph 1023.1mb 73f 61f
6:00pm  -   -   -  13 16 mph 1023mb 73f 61f
5:50pm 3.5ft 6s 5s 13 18 mph 1023.1mb 73f 61f
5:40pm 3.5ft  -  5s 13 18 mph 1022.8mb 73f 61f
5:30pm  -   -   -  11 18 mph 1022.9mb 73f 60f
5:20pm  -   -   -  13 20 mph 1022.9mb 73f 60f
5:10pm  -   -   -  13 18 mph 1022.8mb 73f 60f
5:00pm  -   -   -  13 18 mph 1023mb 73f 60f
4:50pm 3.5ft 5s 4s 13 18 mph 1023.1mb 73f 60f
4:40pm  -   -   -  13 18 mph 1023.1mb 73f 60f
4:30pm  -   -   -  13 18 mph 1023.1mb 73f 60f
4:20pm  -   -   -  13 20 mph 1023mb - 60f
4:10pm  -   -   -  16 20 mph 1023.1mb 73f 60f
4:00pm  -   -   -  13 18 mph 1023.1mb 73f 60f
3:50pm 4ft 5s 5s 13 20 mph 1023mb 73f 60f
3:40pm 4ft  -  5s 16 20 mph 1023mb 73f 60f
3:30pm  -   -   -  13 20 mph 1023.1mb 73f 59f
3:20pm  -   -   -  13 20 mph 1023.2mb 73f 59f
3:10pm  -   -   -  13 20 mph 1023.2mb 73f 59f
3:00pm  -   -   -  13 20 mph 1023.3mb 73f 59f
2:50pm 4.5ft 6s 5s 13 22 mph 1023.2mb 73f 59f
2:40pm 4.5ft  -  5s 13 18 mph 1023.2mb 73f 59f
2:30pm  -   -   -  13 18 mph 1023.3mb 74f 59f
2:20pm  -   -   -  16 20 mph 1023.3mb 74f 59f
2:10pm  -   -   -  13 20 mph 1023.3mb 74f 59f
2:00pm  -   -   -  16 20 mph 1023.2mb 74f 59f
1:50pm 4ft 6s 4s 13 20 mph 1023.3mb 74f 59f
1:40pm 4ft  -  4s 13 18 mph 1023.3mb 74f 59f
1:30pm  -   -   -  13 20 mph 1023.3mb 74f 59f
1:20pm  -   -   -  16 20 mph 1023.2mb 74f 59f
1:10pm  -   -   -  13 20 mph 1023.3mb 74f 59f
1:00pm  -   -   -  13 20 mph 1023.3mb 74f 59f
12:50pm 4.5ft 6s 5s 13 20 mph 1023.4mb 74f 59f
12:40pm 4.5ft  -  5s 13 20 mph 1023.4mb 74f 59f
12:30pm  -   -   -  13 20 mph 1023.5mb 74f 59f
12:20pm  -   -   -  13 20 mph 1023.6mb 74f 59f
12:10pm  -   -   -  13 20 mph 1023.6mb 74f 59f
12:00pm  -   -   -  13 20 mph 1023.6mb 74f 59f
11:50am  -   -   -  16 20 mph 1023.7mb 74f 59f
11:40am  -   -   -  16 22 mph 1023.6mb - 59f
11:30am  -   -   -  16 22 mph 1024.3mb 74f 59f
11:20am  -   -   -  18 25 mph 1023.6mb 74f 59f
11:10am  -   -   -  18 25 mph 1023.5mb - 59f
11:00am  -   -   -  18 25 mph 1023.6mb 74f 59f
10:50am 4.5ft 6s 5s 18 25 mph 1023.6mb 74f 59f
10:40am 4.5ft  -  5s 18 22 mph 1023.7mb 74f 59f
10:30am  -   -   -  18 22 mph 1023.8mb 74f 59f
10:20am  -   -   -  20 25 mph 1023.8mb 74f 59f
10:10am  -   -   -  20 25 mph 1023.8mb 74f 58f
10:00am  -   -   -  18 22 mph 1023.8mb 74f 58f
9:50am 4ft 6s 5s 20 25 mph 1023.8mb 74f 58f
9:40am  -   -   -  18 25 mph 1023.8mb 74f 58f
9:30am  -   -   -  18 25 mph 1023.8mb 74f 58f
9:20am  -   -   -  18 25 mph 1023.8mb 74f 58f
9:10am  -   -   -  18 25 mph 1023.7mb 73f 58f
9:00am  -   -   -  20 25 mph 1023.6mb 73f 58f
8:50am 4.5ft 6s 5s 18 27 mph 1023.6mb 73f 58f
8:40am 4.5ft  -  5s 18 25 mph 1023.5mb 73f 57f
8:30am  -   -   -  18 25 mph 1023.3mb 73f 57f
8:20am  -   -   -  18 25 mph 1023.2mb 73f 58f
8:10am  -   -   -  18 25 mph 1023mb - 57f
8:00am  -   -   -  18 22 mph 1022.9mb 73f 57f
7:50am 4ft 5s 5s 18 22 mph 1022.7mb 73f 57f
7:40am  -   -   -  16 22 mph 1022.5mb 73f 57f
7:30am  -   -   -  18 22 mph 1022.3mb 73f 57f
7:20am  -   -   -  16 22 mph 1022.1mb 73f 57f
7:10am  -   -   -  16 22 mph 1021.9mb 73f 57f
7:00am  -   -   -  16 22 mph 1021.8mb 73f 57f
6:50am 3.5ft 6s 4s 18 27 mph 1021.7mb 73f 57f
6:40am 3.5ft  -  4s 18 25 mph 1021.5mb 73f 57f
6:30am  -   -   -  18 22 mph 1021.4mb 73f 57f
6:20am  -   -   -  18 25 mph 1021.3mb 73f 57f
6:10am  -   -   -  18 25 mph 1021.2mb 73f 57f
6:00am  -   -   -  18 22 mph 1021.3mb 73f 57f
5:50am 3.5ft 5s 4s 18 25 mph 1021.2mb 73f 57f
5:40am  -   -   -  18 25 mph 1021.2mb 73f 57f
5:30am  -   -   -  18 25 mph 1021.1mb 73f 57f
5:20am  -   -   -  18 25 mph 1020.9mb 73f 58f
5:10am  -   -   -  16 22 mph 1020.6mb 73f 58f
5:00am  -   -   -  18 22 mph 1020.3mb 73f 58f
4:50am 4ft 6s 4s 16 22 mph 1020.1mb 73f 58f
4:40am  -   -   -  16 25 mph 1019.9mb 73f 58f
4:30am  -   -   -  16 22 mph 1019.7mb 73f 58f
4:20am  -   -   -  16 20 mph 1019.7mb 73f 58f
4:10am  -   -   -  16 20 mph 1019.5mb 73f 58f
4:00am  -   -   -  16 20 mph 1019.6mb 73f 58f
3:50am 4ft 5s 5s 16 20 mph 1019.5mb 73f 58f
3:40am 4ft  -  5s 18 22 mph 1019.3mb 73f 58f
3:30am  -   -   -  18 25 mph 1019.3mb 73f 59f
3:20am  -   -   -  18 22 mph 1019.3mb 73f 59f
3:10am  -   -   -  18 22 mph 1019.3mb 73f 59f
3:00am  -   -   -  18 25 mph 1019.2mb 73f 59f
2:50am 4ft 5s 4s 18 25 mph 1019.3mb 73f 59f
2:40am 4ft  -  4s 20 25 mph 1019.2mb 73f 59f
2:30am  -   -   -  18 25 mph 1019.1mb 73f 60f
2:20am  -   -   -  18 25 mph 1019mb 73f 60f
2:10am  -   -   -  20 27 mph 1019mb 73f 60f
2:00am  -   -   -  20 25 mph 1018.7mb 73f 60f
1:50am 3.5ft 5s 4s 20 25 mph 1018.7mb 73f 60f
1:40am 3.5ft  -  4s 20 25 mph 1018.5mb 73f 60f
1:30am  -   -   -  20 25 mph 1018.4mb 73f 60f
1:20am  -   -   -  20 25 mph 1018.5mb 73f 61f
1:10am  -   -   -  20 25 mph 1018.4mb 73f 60f
1:00am  -   -   -  20 25 mph 1018.2mb 73f 61f
12:50am 4ft 5s 4s 20 25 mph 1018.1mb 73f 61f
12:40am 4ft  -  4s 22 27 mph 1017.9mb 73f 61f
12:30am  -   -   -  18 27 mph 1017.6mb 73f 62f
12:20am  -   -   -  16 22 mph 1017.7mb 73f 62f
12:10am  -   -   -  16 22 mph 1017.6mb 73f 62f
12:00am  -   -   -  16 22 mph 1017.6mb 73f 62f
Sun 11/19 11:50pm 4ft 5s 4s 18 25 mph 1017.5mb 73f 62f
11:40pm  -   -   -  18 22 mph 1017.5mb 73f 62f
11:30pm  -   -   -  18 25 mph 1017.4mb 73f 62f
11:20pm  -   -   -  18 25 mph 1017.3mb 73f 62f
11:10pm  -   -   -  18 25 mph 1017.1mb 73f 62f
11:00pm  -   -   -  20 25 mph 1017.2mb 73f 62f
10:50pm 4ft 5s 4s 20 27 mph 1016.9mb 73f 62f
10:40pm  -   -   -  20 25 mph 1016.8mb 73f 63f
10:30pm  -   -   -  20 25 mph 1016.7mb 73f 63f
10:20pm  -   -   -  18 25 mph 1016.5mb 73f 63f
10:10pm  -   -   -  18 25 mph 1016.5mb 73f 64f
10:00pm  -   -   -  20 25 mph 1016.4mb 73f 63f
9:50pm 4.5ft 5s 4s 20 25 mph 1016.2mb 73f 64f
9:40pm 4.5ft  -  4s 20 27 mph 1016.1mb 73f 64f
9:30pm  -   -   -  20 25 mph 1016mb 73f 64f
9:20pm  -   -   -  18 25 mph 1015.8mb 73f 64f
9:10pm  -   -   -  20 27 mph 1015.7mb 73f 64f
9:00pm  -   -   -  20 27 mph 1015.5mb 73f 64f
8:50pm 4.5ft 5s 4s 20 27 mph 1015.4mb 73f 64f
8:40pm  -   -   -  20 27 mph 1015.2mb 73f 64f
8:30pm  -   -   -  20 29 mph 1015mb 73f 65f
8:20pm  -   -   -  22 29 mph 1014.9mb 73f 65f
8:10pm  -   -   -  22 27 mph 1014.7mb 73f 65f
8:00pm  -   -   -  22 29 mph 1014.5mb 73f 65f
7:50pm 4ft  -  4s 22 29 mph 1014.3mb 73f 65f
7:40pm 4ft 4s  -   -  mph - - -
7:30pm  -   -   -  22 27 mph 1014mb 73f 65f
7:20pm  -   -   -  22 27 mph 1013.8mb 73f 65f
7:10pm  -   -   -  20 29 mph 1013.6mb 73f 65f
7:00pm  -   -   -  20 29 mph 1013.5mb 74f 65f
6:50pm 4.5ft 6s 5s 20 27 mph 1013.3mb 74f 65f
6:40pm  -   -   -  20 27 mph 1013.1mb 74f 65f
6:30pm  -   -   -  22 27 mph 1012.9mb 74f 65f
6:20pm  -   -   -  20 25 mph 1012.7mb 74f 65f
6:10pm  -   -   -  20 29 mph 1012.6mb 74f 65f
6:00pm  -   -   -  20 25 mph 1012.2mb - 65f
5:50pm 4.5ft 7s 5s 20 27 mph 1012mb 74f 65f
5:40pm 4.5ft  -  5s 20 27 mph 1011.9mb 74f 65f
5:30pm  -   -   -  20 27 mph 1011.7mb 74f 65f
5:20pm  -   -   -  20 27 mph 1011.5mb 74f 65f
5:10pm  -   -   -  20 27 mph 1011.4mb 74f 65f
5:00pm  -   -   -  18 22 mph 1011.2mb 74f 65f
4:50pm 5ft 7s 5s 18 25 mph 1011.1mb 74f 65f
4:40pm  -   -   -  18 25 mph 1011.1mb 74f 65f
4:30pm  -   -   -  18 22 mph 1010.8mb 74f 65f
4:20pm  -   -   -  18 22 mph 1010.7mb 74f 65f
4:10pm  -   -   -  18 22 mph 1010.6mb 74f 65f
4:00pm  -   -   -  18 22 mph 1010.5mb 74f 65f
3:50pm 5.5ft 7s 5s 18 22 mph 1010.4mb 74f 65f
3:40pm 5.5ft  -  5s 18 25 mph 1010.3mb 74f 65f
3:30pm  -   -   -  20 25 mph 1010.1mb 74f 64f
3:20pm  -   -   -  18 25 mph 1010mb 74f 64f
3:10pm  -   -   -  18 25 mph 1010mb 74f 64f
3:00pm  -   -   -  18 22 mph 1010.3mb 74f 64f
2:50pm 6ft 7s 5s 18 22 mph 1009.7mb 74f 64f
2:40pm 6ft  -  5s 18 22 mph 1009.7mb 74f 64f
2:30pm  -   -   -  18 22 mph 1009.6mb 74f 64f
2:20pm  -   -   -  18 22 mph 1009.5mb - 64f
2:10pm  -   -   -  16 22 mph 1009.5mb 74f 64f
2:00pm  -   -   -  18 22 mph 1009.5mb 74f 64f
1:50pm 6ft 7s 5s 18 25 mph 1009.4mb 74f 64f
1:40pm 6ft  -  5s 18 22 mph 1009.5mb 74f 64f
1:30pm  -   -   -  16 20 mph 1009.4mb 74f 64f
1:20pm  -   -   -  18 22 mph 1009.5mb 74f 64f
1:10pm  -   -   -  18 22 mph 1009.4mb 74f 64f
1:00pm  -   -   -  16 20 mph 1009.4mb 74f 64f
12:50pm 6.5ft 7s 5s 18 22 mph 1009.5mb 74f 64f
12:40pm 6.5ft  -  5s 18 22 mph 1009.5mb 74f 64f
12:30pm  -   -   -  18 22 mph 1009.6mb 74f 64f
12:20pm  -   -   -  18 25 mph 1009.7mb 74f 64f
12:10pm  -   -   -  18 25 mph 1009.7mb 74f 64f
12:00pm  -   -   -  18 25 mph 1009.8mb 74f 65f
11:50am 7ft 7s 6s 18 25 mph 1009.9mb 74f 65f
11:40am 7ft  -  6s 18 22 mph 1010mb 74f 65f
11:30am  -   -   -  20 25 mph 1010mb 74f 65f
11:20am  -   -   -  20 27 mph 1010mb 74f 65f
11:10am  -   -   -  22 27 mph 1010mb 74f 65f
11:00am  -   -   -  20 27 mph 1010mb 74f 65f
10:50am 7.5ft 7s 5s 22 27 mph 1010mb 75f 65f
10:40am 7.5ft  -  5s 22 27 mph 1010mb 75f 65f
10:30am  -   -   -  22 27 mph 1009.9mb 75f 65f
10:20am  -   -   -  22 29 mph 1009.9mb 75f 65f
10:10am  -   -   -  25 29 mph 1009.9mb 75f 65f
10:00am  -   -   -  25 31 mph 1009.8mb 75f 65f
9:50am 8.5ft 7s 6s 25 29 mph 1009.6mb 75f 65f
9:40am 8.5ft  -  6s 25 31 mph 1009.5mb 75f 66f
9:30am  -   -   -  25 31 mph 1009.3mb 75f 66f
9:20am  -   -   -  27 34 mph 1009.2mb 75f 66f
9:10am  -   -   -  27 31 mph 1009.1mb 75f 67f
9:00am  -   -   -  25 31 mph 1008.9mb 75f 67f
8:50am 8ft 7s 5s 25 29 mph 1008.7mb 75f 68f
8:40am 8ft  -  5s 25 29 mph 1008.4mb 75f 68f
8:30am  -   -   -  29 34 mph 1008.5mb 75f 68f
8:20am  -   -   -  29 36 mph 1008.3mb 75f 69f
8:10am  -   -   -  29 36 mph 1008.1mb - 70f
8:00am  -   -   -  29 36 mph 1008.7mb 75f 70f
7:50am 8.5ft 7s 5s 29 36 mph 1007.6mb 75f 71f
7:40am 8.5ft  -  5s 31 38 mph 1007.6mb 75f 71f
7:30am  -   -   -  31 40 mph 1007.6mb 75f 71f
7:20am  -   -   -  34 40 mph 1007.6mb 75f 70f
7:10am  -   -   -  34 45 mph 1007.5mb 75f 71f
7:00am  -   -   -  34 43 mph 1007.5mb 75f 72f
6:50am 8.5ft 7s 5s 31 43 mph 1007.4mb 75f 72f
6:40am 8.5ft  -  5s 31 40 mph 1007.5mb 75f 72f
6:30am  -   -   -  31 40 mph 1007.2mb 75f 73f
6:20am  -   -   -  31 40 mph 1007mb 75f 73f
6:10am  -   -   -  31 40 mph 1006.8mb - 73f
6:00am  -   -   -  31 38 mph 1006.8mb 74f 73f
5:50am 9ft 7s 5s 31 40 mph 1006.8mb 74f 73f
5:40am  -   -   -  34 43 mph 1006.8mb 74f 73f
5:30am  -   -   -  31 40 mph 1006.9mb 74f 73f
5:20am  -   -   -  31 38 mph 1006.8mb 74f 73f
5:10am  -   -   -  31 38 mph 1006.8mb 75f 73f
5:00am  -   -   -  31 43 mph 1006.8mb - 73f
4:50am 7.5ft 7s 5s 29 40 mph 1006.9mb - 73f
4:40am 7.5ft  -  5s 31 38 mph 1006.8mb 75f 73f
4:30am  -   -   -  29 38 mph 1006.8mb - 73f
4:20am  -   -   -  29 38 mph 1006.7mb 75f 73f
4:10am  -   -   -  29 36 mph 1006.8mb 75f 73f
4:00am  -   -   -  29 38 mph 1006.8mb 75f 73f
3:50am 7.5ft 7s 5s 29 36 mph 1006.9mb 75f 73f
3:40am  -   -   -  29 36 mph 1007.1mb 75f 73f
3:30am  -   -   -  29 38 mph 1007.1mb - 73f
3:20am  -   -   -  29 38 mph 1007.3mb 75f 73f
3:10am  -   -   -  29 38 mph 1007.3mb 75f 73f
3:00am  -   -   -  29 38 mph 1007.5mb 75f 73f
2:50am 8ft 7s 5s 29 38 mph 1007.6mb 75f 73f
2:40am  -   -   -  31 38 mph 1007.6mb 75f 73f
2:30am  -   -   -  29 36 mph 1007.7mb 75f 73f
2:20am  -   -   -  29 38 mph 1007.8mb 75f 73f
2:10am  -   -   -  29 38 mph 1007.9mb 75f 73f
2:00am  -   -   -  31 38 mph 1008mb 75f 73f
1:50am 8ft 7s 5s 29 38 mph 1008.4mb - 73f
1:40am  -   -   -  31 38 mph 1008.5mb 75f 73f
1:30am  -   -   -  29 36 mph 1008.5mb 75f 73f
1:20am  -   -   -  29 38 mph 1008.6mb 75f 73f
1:10am  -   -   -  29 38 mph 1008.6mb 75f 73f
1:00am  -   -   -  29 38 mph 1008.7mb 75f 73f
12:50am 7.5ft 6s 5s 29 38 mph 1008.9mb 75f 73f
12:40am  -   -   -  29 36 mph 1009.1mb 75f 73f
12:30am  -   -   -  29 38 mph 1009.1mb - 74f
12:20am  -   -   -  31 38 mph 1009.3mb 75f 74f
12:10am  -   -   -  29 36 mph 1009.5mb 75f 74f
12:00am  -   -   -  29 34 mph 1009.5mb 75f 74f
Sat 11/18 11:50pm 7ft 6s 5s 29 36 mph 1009.6mb 75f 74f
11:40pm 7ft  -  5s 29 36 mph 1009.7mb 75f 74f
11:30pm  -   -   -  29 36 mph 1009.8mb 75f 74f
11:20pm  -   -   -  27 34 mph 1009.8mb - 74f
11:10pm  -   -   -  27 34 mph 1009.8mb 75f 74f
11:00pm  -   -   -  29 34 mph 1009.8mb 75f 74f
10:50pm 6.5ft 6s 5s 29 36 mph 1009.8mb 75f 74f
10:40pm  -   -   -  27 36 mph 1009.9mb 75f 74f
10:30pm  -   -   -  27 34 mph 1010mb 75f 74f
10:20pm  -   -   -  27 34 mph 1010.1mb 75f 74f
10:10pm  -   -   -  27 36 mph 1010.4mb 75f 74f
10:00pm  -   -   -  27 34 mph 1010.4mb 75f 74f
9:50pm 6ft 6s 5s 29 38 mph 1010.6mb 75f 74f
9:40pm 6ft  -  5s 27 36 mph 1010.7mb 75f 74f
9:30pm  -   -   -  29 36 mph 1010.6mb 75f 74f
9:20pm  -   -   -  29 38 mph 1010.7mb 75f 74f
9:10pm  -   -   -  29 38 mph 1010.7mb 75f 74f
9:00pm  -   -   -  29 36 mph 1010.8mb 75f 74f
8:50pm 5ft 5s 4s 29 38 mph 1010.8mb 76f 74f
8:40pm  -   -   -  29 36 mph 1010.9mb 76f 73f
8:30pm  -   -   -  29 36 mph 1011.1mb 76f 73f
8:20pm  -   -   -  27 36 mph 1011.1mb 76f 73f
8:10pm  -   -   -  29 36 mph 1011mb 76f 73f
8:00pm  -   -   -  25 29 mph 1011.1mb - 73f
7:50pm 4.5ft 4s 4s 25 31 mph 1011.1mb 76f 73f
7:40pm 4.5ft  -  4s 27 34 mph 1011.1mb 76f 73f
7:30pm  -   -   -  25 31 mph 1011mb 76f 73f
7:20pm  -   -   -  25 29 mph 1011mb - 73f
7:10pm  -   -   -  22 29 mph 1011.1mb 76f 72f
7:00pm  -   -   -  22 27 mph 1011.1mb 76f 72f
6:50pm 3.5ft 5s 4s 22 29 mph 1011.1mb 76f 72f
6:40pm 3.5ft  -  4s 20 25 mph 1011.1mb 76f 72f
6:30pm  -   -   -  20 25 mph 1011.1mb 76f 72f
6:20pm  -   -   -  20 25 mph 1011mb 76f 72f
6:10pm  -   -   -  20 25 mph 1011.2mb 76f 72f
6:00pm  -   -   -  20 25 mph 1011.2mb 76f 72f
5:50pm 3.5ft 4s 4s 20 22 mph 1011.3mb 76f 72f
5:40pm 3.5ft  -  4s 18 22 mph 1011.3mb 76f 72f
5:30pm  -   -   -  18 22 mph 1011.4mb 76f 72f
5:20pm  -   -   -  18 22 mph 1011.3mb 76f 72f
5:10pm  -   -   -  18 22 mph 1011.3mb 76f 72f
5:00pm  -   -   -  18 20 mph 1011.3mb 76f 72f
4:50pm 3.5ft 5s 4s 18 20 mph 1011.3mb 76f 73f
4:40pm  -   -   -  16 20 mph 1011.4mb 76f 73f
4:30pm  -   -   -  18 20 mph 1011.5mb 76f 73f
4:20pm  -   -   -  16 20 mph 1011.5mb 76f 73f
4:10pm  -   -   -  16 22 mph 1011.5mb 76f 73f
4:00pm  -   -   -  18 20 mph 1011.7mb 76f 73f
3:50pm 3.5ft 4s 4s 16 20 mph 1011.7mb 76f 73f
3:40pm 3.5ft  -  4s 16 20 mph 1011.7mb 76f 73f
3:30pm  -   -   -  16 20 mph 1011.8mb 76f 73f
3:20pm  -   -   -  16 20 mph 1011.8mb 76f 73f
3:10pm  -   -   -  16 20 mph 1011.7mb 76f 73f
3:00pm  -   -   -  16 20 mph 1011.9mb 76f 73f
2:50pm 3.5ft 4s 4s 18 20 mph 1012.1mb 76f 73f
2:40pm 3.5ft  -  4s 18 25 mph 1012.2mb 76f 73f
2:30pm  -   -   -  18 22 mph 1012.4mb 76f 73f
2:20pm  -   -   -  18 22 mph 1012.5mb 76f 73f
2:10pm  -   -   -  18 20 mph 1012.7mb 76f 73f
2:00pm  -   -   -  20 22 mph 1012.9mb 76f 74f
1:50pm 4ft 4s 4s 18 25 mph 1013mb 76f 74f
1:40pm 4ft  -  4s 18 20 mph 1013.2mb 76f 73f
1:30pm  -   -   -  18 22 mph 1013.3mb 76f 73f
1:20pm  -   -   -  20 29 mph 1013.4mb 76f 74f
1:10pm  -   -   -  20 27 mph 1013.5mb 76f 74f
1:00pm  -   -   -  20 27 mph 1013.8mb 76f 74f
12:50pm 3.5ft 8s 5s 20 25 mph 1014mb 76f 74f
12:40pm 3.5ft  -  5s 18 25 mph 1014.1mb 76f 74f
12:30pm  -   -   -  20 25 mph 1014.3mb 76f 74f
12:20pm  -   -   -  20 25 mph 1014.6mb 76f 73f
12:10pm  -   -   -  18 22 mph 1014.9mb 76f 73f
12:00pm  -   -   -  18 22 mph 1015.3mb 76f 73f
11:50am 3.5ft 8s 5s 16 20 mph 1015.5mb 76f 73f
11:40am 3.5ft  -  5s 18 20 mph 1015.7mb 76f 73f
11:30am  -   -   -  16 20 mph 1015.9mb 76f 73f
11:20am  -   -   -  16 20 mph 1016.1mb 76f 73f
11:10am  -   -   -  16 22 mph 1016.4mb 76f 73f
11:00am  -   -   -  18 22 mph 1016.5mb 76f 73f
10:50am 3ft 8s 5s 18 20 mph 1016.5mb 76f 73f
10:40am 3ft  -  5s 16 20 mph 1016.5mb 76f 72f
10:30am  -   -   -  16 20 mph 1016.7mb 76f 72f
10:20am  -   -   -  16 20 mph 1016.8mb 76f 72f
10:10am  -   -   -  16 18 mph 1016.8mb 76f 72f
10:00am  -   -   -  16 20 mph 1016.9mb 76f 72f
9:50am 2.5ft 8s 5s 16 20 mph 1016.8mb 76f 72f
9:40am  -   -   -  13 18 mph 1016.9mb 76f 72f
9:30am  -   -   -  11 16 mph 1017mb 76f 71f
9:20am  -   -   -  11 16 mph 1017.1mb 76f 71f
9:10am  -   -   -  11 16 mph 1017.1mb 76f 71f
9:00am  -   -   -  13 18 mph 1017.2mb - 71f
8:50am 2.5ft 8s 6s 11 16 mph 1017.2mb 76f 71f
8:40am  -   -   -  9 13 mph 1017.3mb 76f 70f
8:30am  -   -   -  11 16 mph 1017.3mb 76f 70f
8:20am  -   -   -  11 16 mph 1017.2mb 76f 70f
8:10am  -   -   -  11 16 mph 1017.2mb 76f 69f
8:00am  -   -   -  9 13 mph 1017.4mb 76f 69f
7:50am 2.5ft 8s 6s 9 13 mph 1017.5mb 76f 69f
7:40am 2.5ft  -  6s 9 13 mph 1017.5mb - 69f